createdAt,value
2023-04-20T00:00:24.163Z,11.33
2023-04-20T00:03:12.760Z,9.73
2023-04-20T00:06:01.522Z,9.53
2023-04-20T00:08:48.210Z,11.90
2023-04-20T00:11:35.125Z,12.90
2023-04-20T00:14:21.961Z,12.13
2023-04-20T00:17:09.974Z,12.70
2023-04-20T00:19:57.145Z,13.13
2023-04-20T00:22:43.753Z,12.13
2023-04-20T00:25:31.660Z,10.20
2023-04-20T00:28:18.536Z,12.23
2023-04-20T00:31:04.982Z,13.87
2023-04-20T00:33:53.526Z,11.63
2023-04-20T00:36:40.762Z,11.73
2023-04-20T00:39:27.396Z,13.53
2023-04-20T00:42:14.155Z,12.03
2023-04-20T00:45:00.822Z,10.93
2023-04-20T00:47:47.614Z,10.97
2023-04-20T00:50:36.504Z,10.27
2023-04-20T00:53:23.127Z,8.67
2023-04-20T00:56:10.472Z,10.17
2023-04-20T00:58:57.871Z,7.40
2023-04-20T01:01:44.937Z,10.00
2023-04-20T01:04:32.158Z,8.97
2023-04-20T01:07:20.720Z,13.20
2023-04-20T01:10:09.103Z,12.53
2023-04-20T01:12:55.673Z,10.83
2023-04-20T01:15:42.838Z,10.53
2023-04-20T01:18:29.573Z,12.30
2023-04-20T01:21:17.721Z,11.73
2023-04-20T01:24:07.162Z,10.00
2023-04-20T01:26:54.072Z,9.40
2023-04-20T01:29:41.594Z,10.27
2023-04-20T01:32:28.486Z,9.87
2023-04-20T01:35:15.960Z,12.20
2023-04-20T01:38:03.105Z,10.67
2023-04-20T01:40:51.564Z,16.50
2023-04-20T01:43:39.551Z,11.57
2023-04-20T01:46:26.702Z,13.53
2023-04-20T01:49:13.790Z,11.43
2023-04-20T01:52:00.580Z,12.17
2023-04-20T01:54:47.503Z,12.47
2023-04-20T01:57:36.348Z,13.97
2023-04-20T02:00:23.595Z,10.93
2023-04-20T02:03:11.307Z,12.53
2023-04-20T02:05:58.606Z,12.83
2023-04-20T02:08:46.442Z,10.43
2023-04-20T02:11:33.421Z,11.77
2023-04-20T02:14:22.103Z,10.43
2023-04-20T02:17:09.325Z,10.83
2023-04-20T02:19:56.424Z,11.07
2023-04-20T02:22:42.936Z,11.80
2023-04-20T02:25:33.192Z,12.47
2023-04-20T02:28:20.618Z,12.33
2023-04-20T02:31:09.159Z,13.43
2023-04-20T02:33:56.111Z,14.03
2023-04-20T02:36:43.087Z,10.23
2023-04-20T02:39:29.887Z,12.83
2023-04-20T02:42:16.575Z,11.83
2023-04-20T02:45:04.030Z,10.67
2023-04-20T02:47:54.651Z,13.13
2023-04-20T02:50:42.776Z,13.63
2023-04-20T02:53:29.601Z,12.80
2023-04-20T02:56:16.642Z,13.60
2023-04-20T02:59:03.934Z,27.00
2023-04-20T03:01:51.157Z,13.43
2023-04-20T03:04:39.357Z,11.87
2023-04-20T03:07:26.287Z,19.53
2023-04-20T03:10:13.960Z,11.73
2023-04-20T03:13:03.716Z,12.50
2023-04-20T03:15:50.660Z,16.90
2023-04-20T03:18:37.567Z,12.97
2023-04-20T03:21:25.888Z,13.40
2023-04-20T03:24:12.606Z,13.67
2023-04-20T03:26:59.441Z,13.93
2023-04-20T03:29:48.875Z,14.00
2023-04-20T03:32:36.017Z,11.97
2023-04-20T03:35:22.944Z,12.50
2023-04-20T03:38:11.280Z,10.03
2023-04-20T03:41:01.295Z,16.00
2023-04-20T03:43:48.129Z,12.60
2023-04-20T03:46:34.924Z,11.50
2023-04-20T03:49:25.529Z,13.73
2023-04-20T03:52:12.653Z,13.70
2023-04-20T03:55:03.972Z,14.77
2023-04-20T03:57:50.591Z,11.47
2023-04-20T04:00:37.345Z,10.93
2023-04-20T04:03:24.979Z,12.07
2023-04-20T04:06:12.150Z,11.47
2023-04-20T04:08:59.839Z,11.67
2023-04-20T04:11:52.256Z,10.73
2023-04-20T04:14:44.203Z,12.17
2023-04-20T04:17:36.702Z,11.50
2023-04-20T04:20:29.942Z,11.67
2023-04-20T04:23:20.486Z,12.27
2023-04-20T04:26:07.889Z,12.13
2023-04-20T04:29:01.262Z,14.77
2023-04-20T04:31:51.734Z,9.00
2023-04-20T04:34:44.146Z,9.80
2023-04-20T04:37:33.892Z,11.13
2023-04-20T04:40:21.717Z,9.97
2023-04-20T04:43:12.700Z,11.30
2023-04-20T04:46:08.322Z,9.67
2023-04-20T04:49:01.312Z,8.67
2023-04-20T04:51:54.145Z,13.00
2023-04-20T04:54:43.902Z,12.00
2023-04-20T04:57:31.844Z,14.40
2023-04-20T05:00:25.448Z,10.90
2023-04-20T05:03:19.275Z,10.20
2023-04-20T05:06:06.939Z,13.20
2023-04-20T05:09:00.432Z,11.90
2023-04-20T05:11:51.472Z,11.50
2023-04-20T05:14:46.322Z,12.67
2023-04-20T05:17:36.873Z,14.67
2023-04-20T05:20:29.407Z,11.83
2023-04-20T05:26:11.888Z,11.67
2023-04-20T05:28:58.548Z,9.93
2023-04-20T05:31:45.451Z,11.23
2023-04-20T05:34:32.868Z,12.20
2023-04-20T05:37:20.914Z,12.93
2023-04-20T05:40:09.356Z,11.23
2023-04-20T05:42:56.384Z,11.77
2023-04-20T05:45:43.446Z,12.00
2023-04-20T05:48:30.783Z,10.73
2023-04-20T05:51:17.545Z,13.63
2023-04-20T05:54:06.215Z,10.67
2023-04-20T05:56:53.723Z,10.30
2023-04-20T05:59:40.717Z,14.07
2023-04-20T06:02:28.022Z,13.50
2023-04-20T06:05:15.293Z,12.07
2023-04-20T06:08:02.096Z,12.60
2023-04-20T06:10:50.058Z,13.00
2023-04-20T06:13:37.081Z,13.27
2023-04-20T06:16:23.864Z,13.40
2023-04-20T06:19:11.050Z,12.60
2023-04-20T06:22:01.015Z,12.07
2023-04-20T06:24:48.090Z,11.03
2023-04-20T06:27:36.642Z,12.80
2023-04-20T06:30:23.557Z,12.23
2023-04-20T06:33:13.941Z,11.40
2023-04-20T06:36:00.922Z,13.10
2023-04-20T06:38:51.706Z,11.97
2023-04-20T06:41:39.150Z,12.93
2023-04-20T06:44:27.251Z,15.00
2023-04-20T06:47:14.360Z,13.53
2023-04-20T06:50:01.445Z,13.53
2023-04-20T06:52:49.183Z,13.80
2023-04-20T06:55:36.206Z,11.23
2023-04-20T06:58:22.809Z,13.57
2023-04-20T07:01:11.509Z,13.43
2023-04-20T07:03:58.727Z,14.83
2023-04-20T07:06:45.992Z,11.63
2023-04-20T07:09:32.779Z,10.93
2023-04-20T07:12:19.805Z,13.60
2023-04-20T07:15:09.098Z,12.67
2023-04-20T07:17:57.161Z,11.63
2023-04-20T07:20:44.167Z,13.67
2023-04-20T07:23:31.362Z,12.43
2023-04-20T07:26:18.251Z,13.23
2023-04-20T07:29:05.297Z,12.13
2023-04-20T07:31:52.230Z,12.97
2023-04-20T07:34:40.623Z,11.80
2023-04-20T07:37:27.528Z,15.03
2023-04-20T07:40:14.524Z,12.00
2023-04-20T07:43:01.036Z,12.60
2023-04-20T07:45:48.672Z,14.10
2023-04-20T07:48:35.771Z,12.53
2023-04-20T07:51:23.780Z,11.83
2023-04-20T07:54:10.517Z,12.90
2023-04-20T07:56:57.910Z,10.77
2023-04-20T07:59:47.035Z,10.17
2023-04-20T08:02:33.893Z,14.27
2023-04-20T08:05:21.284Z,12.20
2023-04-20T08:08:10.029Z,13.43
2023-04-20T08:10:58.327Z,11.57
2023-04-20T08:13:44.823Z,15.50
2023-04-20T08:16:31.634Z,13.13
2023-04-20T08:19:18.797Z,17.07
2023-04-20T08:22:07.093Z,13.43
2023-04-20T08:24:55.448Z,14.60
2023-04-20T08:27:42.520Z,14.53
2023-04-20T08:30:29.291Z,12.63
2023-04-20T08:33:16.192Z,14.87
2023-04-20T08:36:03.280Z,11.57
2023-04-20T08:39:07.726Z,12.10
2023-04-20T08:41:57.327Z,13.63
2023-04-20T08:44:44.140Z,23.97
2023-04-20T08:47:32.090Z,12.10
2023-04-20T08:50:19.907Z,12.33
2023-04-20T08:53:06.803Z,10.90
2023-04-20T08:55:53.582Z,14.70
2023-04-20T08:58:42.390Z,11.33
2023-04-20T09:01:35.276Z,12.03
2023-04-20T09:04:24.900Z,9.07
2023-04-20T09:07:19.908Z,11.73
2023-04-20T09:10:07.703Z,9.63
2023-04-20T09:12:55.177Z,9.93
2023-04-20T09:15:43.623Z,7.20
2023-04-20T09:18:30.464Z,9.50
2023-04-20T09:21:17.009Z,10.43
2023-04-20T09:24:06.817Z,8.10
2023-04-20T09:26:54.034Z,7.97
2023-04-20T09:29:40.895Z,9.53
2023-04-20T09:32:29.956Z,6.90
2023-04-20T09:35:24.466Z,6.63
2023-04-20T09:38:12.943Z,6.67
2023-04-20T09:41:01.846Z,7.30
2023-04-20T09:43:49.006Z,8.50
2023-04-20T09:46:36.892Z,7.43
2023-04-20T09:49:27.783Z,9.33
2023-04-20T09:52:18.834Z,7.30
2023-04-20T09:55:08.214Z,7.13
2023-04-20T09:57:55.671Z,6.40
2023-04-20T10:00:44.058Z,6.63
2023-04-20T10:03:31.236Z,5.63
2023-04-20T10:06:24.344Z,5.87
2023-04-20T10:09:23.273Z,6.47
2023-04-20T10:12:12.392Z,5.93
2023-04-20T10:15:00.895Z,7.47
2023-04-20T10:17:47.825Z,6.07
2023-04-20T10:20:34.666Z,6.87
2023-04-20T10:23:23.143Z,6.10
2023-04-20T10:26:10.598Z,5.80
2023-04-20T10:28:57.536Z,7.90
2023-04-20T10:31:44.204Z,5.63
2023-04-20T10:34:32.293Z,5.47
2023-04-20T10:37:19.550Z,5.67
2023-04-20T10:40:10.656Z,6.23
2023-04-20T10:42:57.799Z,4.87
2023-04-20T10:45:44.933Z,6.30
2023-04-20T10:48:32.126Z,3.83
2023-04-20T10:51:19.194Z,4.80
2023-04-20T10:54:08.381Z,4.07
2023-04-20T10:56:57.214Z,4.90
2023-04-20T10:59:44.380Z,3.67
2023-04-20T11:02:31.385Z,5.03
2023-04-20T11:05:20.326Z,3.97
2023-04-20T11:08:07.262Z,4.47
2023-04-20T11:10:54.451Z,6.00
2023-04-20T11:13:42.700Z,5.17
2023-04-20T11:16:44.381Z,4.67
2023-04-20T11:19:36.281Z,3.93
2023-04-20T11:22:23.729Z,3.40
2023-04-20T11:25:11.946Z,5.17
2023-04-20T11:28:08.609Z,4.43
2023-04-20T11:30:56.849Z,3.40
2023-04-20T11:33:43.906Z,3.93
2023-04-20T11:36:31.147Z,5.37
2023-04-20T11:39:24.506Z,5.47
2023-04-20T11:42:11.274Z,5.10
2023-04-20T11:44:58.139Z,3.73
2023-04-20T11:47:47.302Z,4.97
2023-04-20T11:50:34.056Z,6.07
2023-04-20T11:53:21.133Z,4.10
2023-04-20T11:56:08.868Z,5.30
2023-04-20T11:58:56.520Z,4.87
2023-04-20T12:01:43.578Z,4.50
2023-04-20T12:04:33.398Z,4.23
2023-04-20T12:07:20.327Z,5.47
2023-04-20T12:10:08.420Z,5.63
2023-04-20T12:12:56.242Z,5.37
2023-04-20T12:15:43.492Z,4.37
2023-04-20T12:18:30.315Z,3.00
2023-04-20T12:21:18.978Z,4.40
2023-04-20T12:24:06.075Z,3.60
2023-04-20T12:26:53.241Z,2.73
2023-04-20T12:29:40.058Z,2.57
2023-04-20T12:32:26.976Z,3.72
2023-04-20T12:35:14.331Z,3.63
2023-04-20T12:38:02.691Z,3.23
2023-04-20T12:40:49.988Z,4.00
2023-04-20T12:43:36.868Z,2.90
2023-04-20T12:46:23.894Z,5.03
2023-04-20T12:49:11.004Z,2.47
2023-04-20T12:51:57.648Z,3.67
2023-04-20T12:54:46.280Z,3.50
2023-04-20T12:57:33.152Z,4.27
2023-04-20T13:00:21.016Z,2.17
2023-04-20T13:03:07.959Z,2.47
2023-04-20T13:05:54.609Z,2.87
2023-04-20T13:08:41.482Z,3.27
2023-04-20T13:11:30.933Z,4.30
2023-04-20T13:14:18.379Z,2.47
2023-04-20T13:17:06.993Z,1.80
2023-04-20T13:19:53.996Z,7.17
2023-04-20T13:22:47.021Z,9.13
2023-04-20T13:25:38.810Z,2.00
2023-04-20T13:28:27.440Z,2.17
2023-04-20T13:31:14.158Z,1.63
2023-04-20T13:34:01.069Z,2.53
2023-04-20T13:36:47.983Z,1.67
2023-04-20T13:39:35.063Z,2.03
2023-04-20T13:42:21.718Z,2.90
2023-04-20T13:45:11.474Z,2.20
2023-04-20T13:47:58.830Z,2.30
2023-04-20T13:50:45.527Z,2.70
2023-04-20T13:53:32.490Z,1.47
2023-04-20T13:56:19.413Z,1.93
2023-04-20T13:59:06.123Z,2.20
2023-04-20T14:01:54.702Z,0.43
2023-04-20T14:04:41.752Z,1.70
2023-04-20T14:07:28.638Z,1.50
2023-04-20T14:10:15.266Z,1.53
2023-04-20T14:13:02.375Z,0.83
2023-04-20T14:15:49.402Z,1.87
2023-04-20T14:18:37.657Z,1.57
2023-04-20T14:21:24.568Z,2.17
2023-04-20T14:24:12.612Z,1.67
2023-04-20T14:26:59.534Z,1.33
2023-04-20T14:29:46.404Z,3.20
2023-04-20T14:32:33.106Z,3.37
2023-04-20T14:35:21.944Z,2.20
2023-04-20T14:38:08.746Z,2.47
2023-04-20T14:40:55.583Z,2.10
2023-04-20T14:43:42.605Z,2.73
2023-04-20T14:46:29.522Z,2.90
2023-04-20T14:49:16.683Z,2.30
2023-04-20T14:52:05.150Z,2.70
2023-04-20T14:54:52.185Z,1.57
2023-04-20T14:57:38.736Z,2.00
2023-04-20T15:00:28.239Z,2.73
2023-04-20T15:03:15.592Z,1.23
2023-04-20T15:06:03.660Z,2.13
2023-04-20T15:08:54.186Z,1.80
2023-04-20T15:11:40.961Z,2.33
2023-04-20T15:14:28.067Z,4.80
2023-04-20T15:17:14.872Z,5.23
2023-04-20T15:20:01.697Z,2.43
2023-04-20T15:22:48.421Z,1.73
2023-04-20T15:25:36.778Z,0.97
2023-04-20T15:28:23.571Z,2.40
2023-04-20T15:31:10.476Z,2.93
2023-04-20T15:34:00.716Z,3.10
2023-04-20T15:36:47.953Z,4.30
2023-04-20T15:39:34.706Z,2.00
2023-04-20T15:42:22.890Z,1.93
2023-04-20T15:45:10.451Z,4.80
2023-04-20T15:47:57.723Z,3.07
2023-04-20T15:50:44.478Z,2.50
2023-04-20T15:53:32.175Z,1.10
2023-04-20T15:56:22.762Z,2.43
2023-04-20T15:59:11.200Z,2.30
2023-04-20T16:01:58.438Z,2.63
2023-04-20T16:04:46.104Z,1.67
2023-04-20T16:07:33.374Z,2.30
2023-04-20T16:10:20.353Z,2.50
2023-04-20T16:15:58.288Z,2.63
2023-04-20T16:18:45.198Z,3.00
2023-04-20T16:21:32.152Z,4.70
2023-04-20T16:24:19.101Z,3.13
2023-04-20T16:27:06.356Z,2.70
2023-04-20T16:29:53.363Z,3.07
2023-04-20T16:32:41.951Z,3.43
2023-04-20T16:35:29.485Z,5.00
2023-04-20T16:38:16.277Z,3.10
2023-04-20T16:41:02.871Z,2.90
2023-04-20T16:43:49.861Z,2.87
2023-04-20T16:46:36.952Z,3.70
2023-04-20T16:49:26.072Z,3.33
2023-04-20T16:52:13.015Z,4.73
2023-04-20T16:54:59.788Z,4.47
2023-04-20T16:57:47.116Z,2.63
2023-04-20T17:00:35.097Z,3.13
2023-04-20T17:03:22.151Z,4.20
2023-04-20T17:06:10.768Z,3.50
2023-04-20T17:09:05.066Z,3.60
2023-04-20T17:11:52.721Z,4.47
2023-04-20T17:14:39.591Z,3.40
2023-04-20T17:17:27.801Z,2.77
2023-04-20T17:20:15.908Z,3.37
2023-04-20T17:23:03.958Z,5.90
2023-04-20T17:25:51.411Z,4.93
2023-04-20T17:28:38.585Z,4.97
2023-04-20T17:31:25.368Z,3.20
2023-04-20T17:34:12.431Z,4.33
2023-04-20T17:36:59.520Z,4.20
2023-04-20T17:39:48.010Z,3.47
2023-04-20T17:42:35.048Z,3.37
2023-04-20T17:45:22.259Z,4.30
2023-04-20T17:48:09.077Z,3.73
2023-04-20T17:50:58.132Z,5.37
2023-04-20T17:53:45.867Z,4.13
2023-04-20T17:56:33.967Z,5.27
2023-04-20T17:59:20.757Z,3.53
2023-04-20T18:02:09.110Z,3.83
2023-04-20T18:04:59.762Z,4.47
2023-04-20T18:07:46.730Z,4.33
2023-04-20T18:10:34.145Z,4.83
2023-04-20T18:13:23.064Z,3.23
2023-04-20T18:16:10.289Z,3.17
2023-04-20T18:18:57.050Z,5.50
2023-04-20T18:21:44.264Z,5.93
2023-04-20T18:24:31.401Z,3.90
2023-04-20T18:27:18.281Z,3.73
2023-04-20T18:30:10.380Z,5.17
2023-04-20T18:32:57.646Z,4.63
2023-04-20T18:35:51.983Z,5.47
2023-04-20T18:38:46.074Z,5.67
2023-04-20T18:41:33.301Z,5.70
2023-04-20T18:44:21.004Z,7.00
2023-04-20T18:47:10.547Z,5.80
2023-04-20T18:49:57.712Z,6.40
2023-04-20T18:52:45.162Z,3.60
2023-04-20T18:55:32.675Z,5.50
2023-04-20T18:58:19.746Z,5.27
2023-04-20T19:01:07.092Z,6.13
2023-04-20T19:03:56.526Z,6.13
2023-04-20T19:06:44.133Z,3.57
2023-04-20T19:09:31.838Z,5.37
2023-04-20T19:12:19.098Z,4.67
2023-04-20T19:15:08.717Z,5.53
2023-04-20T19:17:57.269Z,5.03
2023-04-20T19:20:46.876Z,5.77
2023-04-20T19:23:36.101Z,6.90
2023-04-20T19:26:24.181Z,5.17
2023-04-20T19:29:15.290Z,5.47
2023-04-20T19:32:02.696Z,6.77
2023-04-20T19:34:50.072Z,6.03
2023-04-20T19:37:39.204Z,6.23
2023-04-20T19:40:26.664Z,7.00
2023-04-20T19:43:14.234Z,5.53
2023-04-20T19:46:01.271Z,7.40
2023-04-20T19:48:48.435Z,6.93
2023-04-20T19:51:38.506Z,5.87
2023-04-20T19:54:27.073Z,4.87
2023-04-20T19:57:14.429Z,5.73
2023-04-20T20:00:01.345Z,8.37
2023-04-20T20:02:48.501Z,6.20
2023-04-20T20:05:35.903Z,6.43
2023-04-20T20:08:24.006Z,5.17
2023-04-20T20:11:12.502Z,6.43
2023-04-20T20:14:02.862Z,5.03
2023-04-20T20:16:50.211Z,6.77
2023-04-20T20:19:37.843Z,5.67
2023-04-20T20:22:24.954Z,6.93
2023-04-20T20:25:12.886Z,6.67
2023-04-20T20:28:02.029Z,6.67
2023-04-20T20:30:49.658Z,6.90
2023-04-20T20:33:37.609Z,5.63
2023-04-20T20:36:28.190Z,7.90
2023-04-20T20:39:16.686Z,7.33
2023-04-20T20:42:04.585Z,7.57
2023-04-20T20:44:55.185Z,8.80
2023-04-20T20:47:44.222Z,8.37
2023-04-20T20:50:31.712Z,7.53
2023-04-20T20:53:22.048Z,4.77
2023-04-20T20:56:09.811Z,9.03
2023-04-20T20:59:00.278Z,8.77
2023-04-20T21:01:49.430Z,9.30
2023-04-20T21:04:37.351Z,9.13
2023-04-20T21:07:24.743Z,6.03
2023-04-20T21:10:12.965Z,9.47
2023-04-20T21:13:01.193Z,7.17
2023-04-20T21:15:48.458Z,9.17
2023-04-20T21:18:37.164Z,8.60
2023-04-20T21:21:25.621Z,9.80
2023-04-20T21:24:13.597Z,9.40
2023-04-20T21:27:00.711Z,9.83
2023-04-20T21:29:47.878Z,12.23
2023-04-20T21:32:37.981Z,10.83
2023-04-20T21:35:27.303Z,9.47
2023-04-20T21:38:16.007Z,8.47
2023-04-20T21:41:03.226Z,9.80
2023-04-20T21:43:52.542Z,9.77
2023-04-20T21:46:40.786Z,10.30
2023-04-20T21:49:28.541Z,9.17
2023-04-20T21:52:16.943Z,8.90
2023-04-20T21:55:04.358Z,7.60
2023-04-20T21:57:52.455Z,9.93
2023-04-20T22:00:40.318Z,9.97
2023-04-20T22:03:29.339Z,6.50
2023-04-20T22:06:19.838Z,8.27
2023-04-20T22:09:08.787Z,8.93
2023-04-20T22:11:58.217Z,10.73
2023-04-20T22:14:45.867Z,8.43
2023-04-20T22:17:32.774Z,8.77
2023-04-20T22:20:20.468Z,10.33
2023-04-20T22:23:10.364Z,10.73
2023-04-20T22:25:59.062Z,10.47
2023-04-20T22:28:45.984Z,11.77
2023-04-20T22:31:33.053Z,10.63
2023-04-20T22:34:19.751Z,10.77
2023-04-20T22:37:06.378Z,11.03
2023-04-20T22:39:53.331Z,11.13
2023-04-20T22:42:41.637Z,8.37
2023-04-20T22:45:28.185Z,9.70
2023-04-20T22:48:15.070Z,10.00
2023-04-20T22:51:02.000Z,8.90
2023-04-20T22:53:49.119Z,9.33
2023-04-20T22:56:36.235Z,9.30
2023-04-20T22:59:24.020Z,9.90
2023-04-20T23:02:10.963Z,9.17
2023-04-20T23:04:57.983Z,9.93
2023-04-20T23:07:45.341Z,10.97
2023-04-20T23:10:32.444Z,7.57
2023-04-20T23:13:19.290Z,10.43
2023-04-20T23:16:07.703Z,9.60
2023-04-20T23:18:54.641Z,8.73
2023-04-20T23:21:41.789Z,7.80
2023-04-20T23:24:29.213Z,8.70
2023-04-20T23:27:15.802Z,9.67
2023-04-20T23:30:02.500Z,10.40
2023-04-20T23:32:50.701Z,6.30
2023-04-20T23:35:38.317Z,12.07
2023-04-20T23:38:24.819Z,10.43
2023-04-20T23:41:12.361Z,8.83
2023-04-20T23:43:59.370Z,9.17
2023-04-20T23:46:46.411Z,8.03
2023-04-20T23:49:34.613Z,7.63
2023-04-20T23:52:21.436Z,9.87
2023-04-20T23:55:09.232Z,7.83
2023-04-20T23:58:00.526Z,9.33
